Time;durP1;ratioP1;P1;durP2;ratioP2;P2;SDS_P1;SDS_P2;PMS_P1;PMS_P2;Temp;Humidity;BMP_temperature;BMP_pressure;BME280_temperature;BME280_humidity;BME280_pressure;Samples;Min_cycle;Max_cycle;Signal;HPM_P1;HPM_P2
2022/01/02 00:00:10;;;;;;;16.45;6.60;;;;;;;10.53;100.00;101747.88;5156194;27;20465;-67
2022/01/02 00:02:39;;;;;;;11.40;6.70;;;;;;;10.47;100.00;101742.66;5155448;27;20042;-67
2022/01/02 00:05:10;;;;;;;19.08;6.68;;;;;;;10.42;100.00;101720.50;5155164;27;20293;-68
2022/01/02 00:07:43;;;;;;;12.55;6.45;;;;;;;10.41;100.00;101716.09;5156334;27;20486;-68
2022/01/02 00:10:13;;;;;;;13.85;6.38;;;;;;;10.40;100.00;101717.88;5154447;27;20142;-68
2022/01/02 00:12:50;;;;;;;15.73;6.78;;;;;;;10.38;100.00;101709.00;5157293;27;20050;-68
2022/01/02 00:15:21;;;;;;;15.48;7.53;;;;;;;10.36;100.00;101707.28;5155254;27;20050;-69
2022/01/02 00:17:51;;;;;;;17.38;6.88;;;;;;;10.33;100.00;101704.66;5159513;27;20042;-68
2022/01/02 00:20:21;;;;;;;17.15;8.18;;;;;;;10.29;100.00;101710.00;5153766;27;20072;-68
2022/01/02 00:22:51;;;;;;;15.63;7.57;;;;;;;10.37;100.00;101719.69;5155551;27;20053;-68
2022/01/02 00:25:27;;;;;;;17.73;7.20;;;;;;;10.34;100.00;101725.13;5154988;27;20400;-68
2022/01/02 00:27:55;;;;;;;19.50;8.85;;;;;;;10.36;100.00;101734.84;5156709;27;20050;-68
2022/01/02 00:30:24;;;;;;;14.13;7.85;;;;;;;10.40;100.00;101719.66;5153694;27;20221;-68
2022/01/02 00:32:53;;;;;;;15.68;8.13;;;;;;;10.40;100.00;101720.56;5156891;27;20133;-68
2022/01/02 00:35:22;;;;;;;13.90;7.15;;;;;;;10.37;100.00;101709.94;5155882;27;20066;-68
2022/01/02 00:37:52;;;;;;;16.27;7.35;;;;;;;10.44;100.00;101692.91;5155526;27;20498;-68
2022/01/02 00:40:20;;;;;;;16.60;6.47;;;;;;;10.43;100.00;101685.78;5156223;27;20479;-69
2022/01/02 00:42:54;;;;;;;17.13;7.30;;;;;;;10.45;100.00;101701.78;5160689;27;20054;-69
2022/01/02 00:45:27;;;;;;;12.98;6.95;;;;;;;10.44;100.00;101703.56;5159760;27;20054;-69
2022/01/02 00:48:01;;;;;;;18.38;7.18;;;;;;;10.47;100.00;101689.28;5158019;27;20051;-69
2022/01/02 00:50:35;;;;;;;15.02;6.50;;;;;;;10.43;100.00;101680.47;5156472;27;20034;-69
2022/01/02 00:53:07;;;;;;;19.33;6.72;;;;;;;10.46;100.00;101666.19;5160590;27;20053;-69
2022/01/02 00:55:35;;;;;;;15.82;6.78;;;;;;;10.50;100.00;101678.56;5157737;27;20383;-68
2022/01/02 00:58:06;;;;;;;14.52;7.28;;;;;;;10.45;100.00;101676.00;5154595;27;20054;-68
2022/01/02 01:00:35;;;;;;;13.50;6.47;;;;;;;10.48;100.00;101667.03;5160495;27;20045;-69
2022/01/02 01:03:09;;;;;;;17.48;7.22;;;;;;;10.51;100.00;101672.31;5156175;27;20137;-68
2022/01/02 01:05:38;;;;;;;16.70;8.18;;;;;;;10.50;100.00;101669.69;5156259;27;20486;-68
2022/01/02 01:08:09;;;;;;;17.95;6.65;;;;;;;10.51;100.00;101674.13;5159323;27;20160;-71
2022/01/02 01:10:40;;;;;;;22.40;7.15;;;;;;;10.49;100.00;101659.91;5160784;27;20482;-72
2022/01/02 01:13:09;;;;;;;14.80;6.72;;;;;;;10.47;100.00;101635.91;5158823;27;20077;-72
2022/01/02 01:15:38;;;;;;;17.80;7.20;;;;;;;10.46;100.00;101620.84;5159546;27;20129;-72
2022/01/02 01:18:07;;;;;;;16.88;7.47;;;;;;;10.50;100.00;101627.00;5156013;27;20620;-72
2022/01/02 01:20:38;;;;;;;14.18;6.53;;;;;;;10.55;100.00;101611.78;5158811;27;20549;-72
2022/01/02 01:23:08;;;;;;;17.55;6.80;;;;;;;10.61;100.00;101609.00;5157134;27;20050;-71
2022/01/02 01:25:38;;;;;;;16.27;7.00;;;;;;;10.65;100.00;101602.66;5157608;27;20580;-71
2022/01/02 01:28:06;;;;;;;16.70;6.75;;;;;;;10.69;100.00;101601.69;5155370;27;20052;-71
2022/01/02 01:30:34;;;;;;;17.13;6.57;;;;;;;10.75;100.00;101603.38;5157449;27;20148;-68
2022/01/02 01:33:04;;;;;;;22.88;7.38;;;;;;;10.82;100.00;101618.34;5141933;27;20741;-68
2022/01/02 01:35:34;;;;;;;13.27;6.22;;;;;;;10.78;100.00;101596.16;5136833;27;20085;-68
2022/01/02 01:38:05;;;;;;;17.05;6.25;;;;;;;10.84;100.00;101603.16;5155750;27;20066;-70
2022/01/02 01:44:40;;;;;;;13.65;5.65;;;;;;;10.88;100.00;101585.28;5160285;27;20537;-68
2022/01/02 01:50:58;;;;;;;15.93;5.70;;;;;;;10.94;100.00;101590.50;5151568;27;20054;-68
2022/01/02 01:53:35;;;;;;;11.57;5.50;;;;;;;11.02;100.00;101583.22;5155762;27;20545;-68
2022/01/02 01:59:38;;;;;;;14.80;5.85;;;;;;;11.09;100.00;101576.81;5137777;27;20042;-69
2022/01/02 02:02:32;;;;;;;16.42;5.40;;;;;;;11.09;100.00;101573.28;5133920;27;20042;-69
2022/01/02 02:05:49;;;;;;;14.63;6.22;;;;;;;11.16;100.00;101570.41;5140116;27;20060;-69
2022/01/02 02:12:23;;;;;;;14.43;5.15;;;;;;;11.17;100.00;101550.81;5131509;27;20130;-69
2022/01/02 02:15:24;;;;;;;15.52;5.43;;;;;;;11.25;100.00;101547.06;5137709;27;20055;-69
2022/01/02 02:18:05;;;;;;;13.98;5.55;;;;;;;11.21;100.00;101544.47;5134193;27;20142;-69
2022/01/02 02:21:15;;;;;;;12.88;5.00;;;;;;;11.24;100.00;101553.31;5135512;27;20126;-69
2022/01/02 02:24:07;;;;;;;13.32;5.03;;;;;;;11.25;100.00;101558.63;5134351;27;20059;-68
2022/01/02 02:26:59;;;;;;;19.55;5.30;;;;;;;11.25;100.00;101544.41;5135854;27;20429;-68
2022/01/02 02:29:45;;;;;;;14.25;4.95;;;;;;;11.18;100.00;101546.34;5137241;27;20058;-68
2022/01/02 02:32:21;;;;;;;16.77;6.38;;;;;;;11.26;100.00;101539.03;5138026;27;20561;-68
2022/01/02 02:34:55;;;;;;;12.65;5.15;;;;;;;11.31;100.00;101537.13;5134151;27;20103;-68
2022/01/02 02:37:35;;;;;;;13.98;5.45;;;;;;;11.43;100.00;101533.28;5137746;27;20055;-68
2022/01/02 02:40:09;;;;;;;10.57;5.35;;;;;;;11.38;100.00;101535.19;5133298;27;20123;-68
2022/01/02 02:42:50;;;;;;;10.70;4.60;;;;;;;11.39;100.00;101521.78;5135097;27;20142;-68
2022/01/02 02:51:08;;;;;;;13.65;4.85;;;;;;;11.50;100.00;101493.91;5133328;27;20046;-68
2022/01/02 02:56:30;;;;;;;12.25;5.07;;;;;;;11.56;100.00;101507.09;5133328;27;20784;-68
2022/01/02 02:58:58;;;;;;;15.25;4.45;;;;;;;11.64;100.00;101522.97;5131875;27;20047;-68
2022/01/02 03:01:29;;;;;;;12.60;3.97;;;;;;;11.64;100.00;101521.16;5135640;27;20046;-68
2022/01/02 03:04:04;;;;;;;11.50;4.65;;;;;;;11.64;100.00;101514.94;5125415;27;20046;-68
2022/01/02 03:06:44;;;;;;;14.43;4.40;;;;;;;11.64;100.00;101517.63;5135847;27;20047;-68
2022/01/02 03:09:37;;;;;;;14.32;5.15;;;;;;;11.78;100.00;101511.00;5133025;27;20069;-68
2022/01/02 03:12:09;;;;;;;13.77;4.10;;;;;;;11.77;100.00;101506.56;5138446;27;20095;-68
2022/01/02 03:14:38;;;;;;;18.48;4.85;;;;;;;11.66;100.00;101489.91;5133651;27;20127;-68
2022/01/02 03:17:07;;;;;;;12.98;4.65;;;;;;;11.73;100.00;101486.19;5135978;27;20470;-68
2022/01/02 03:19:36;;;;;;;10.60;4.07;;;;;;;11.72;100.00;101483.53;5136353;27;20041;-68
2022/01/02 03:22:07;;;;;;;15.20;4.50;;;;;;;11.71;100.00;101471.97;5134006;27;20191;-68
2022/01/02 03:24:42;;;;;;;10.57;4.38;;;;;;;11.70;100.00;101475.56;5153633;27;20050;-68
2022/01/02 03:27:17;;;;;;;13.93;5.38;;;;;;;11.73;100.00;101474.59;5130061;27;20137;-68
2022/01/02 03:29:58;;;;;;;10.98;4.03;;;;;;;11.68;100.00;101473.84;5133054;27;20047;-68
2022/01/02 03:32:29;;;;;;;12.25;3.80;;;;;;;11.66;100.00;101460.50;5133010;27;20070;-68
2022/01/02 03:35:17;;;;;;;10.40;4.25;;;;;;;11.72;100.00;101460.34;5135923;27;20483;-68
2022/01/02 03:37:55;;;;;;;10.52;4.15;;;;;;;11.72;100.00;101456.81;5133213;27;20043;-68
2022/01/02 03:43:54;;;;;;;13.90;4.18;;;;;;;11.87;100.00;101455.53;5133782;27;20376;-68
2022/01/02 03:46:32;;;;;;;11.60;4.55;;;;;;;11.89;100.00;101441.19;5134689;27;20047;-68
2022/01/02 03:49:03;;;;;;;15.77;5.15;;;;;;;11.90;100.00;101455.41;5134076;27;20050;-68
2022/01/02 03:51:34;;;;;;;14.27;4.60;;;;;;;11.88;100.00;101450.09;5133552;27;20116;-68
2022/01/02 03:54:09;;;;;;;14.32;4.80;;;;;;;11.90;100.00;101434.91;5136382;27;20487;-68
2022/01/02 03:56:53;;;;;;;15.52;4.50;;;;;;;11.84;100.00;101432.41;5153773;27;20051;-68
2022/01/02 03:59:34;;;;;;;8.82;3.78;;;;;;;11.75;100.00;101432.66;5157344;27;20069;-68
2022/01/02 04:02:13;;;;;;;15.95;4.60;;;;;;;11.62;100.00;101420.56;5134946;27;20058;-68
2022/01/02 04:04:52;;;;;;;11.02;4.07;;;;;;;11.55;100.00;101423.38;5135678;27;20133;-68
2022/01/02 04:07:50;;;;;;;14.20;5.00;;;;;;;11.50;100.00;101422.63;5139478;27;20054;-68
2022/01/02 04:10:39;;;;;;;13.98;4.75;;;;;;;11.50;100.00;101425.31;5154213;27;20050;-68
2022/01/02 04:16:08;;;;;;;17.23;5.45;;;;;;;11.53;100.00;101416.34;5161163;27;20546;-68
2022/01/02 04:18:40;;;;;;;10.02;4.47;;;;;;;11.43;100.00;101407.69;5156276;27;20050;-68
2022/01/02 04:21:20;;;;;;;15.10;5.03;;;;;;;11.37;100.00;101415.84;5159530;27;20052;-68
2022/01/02 04:24:00;;;;;;;11.02;4.40;;;;;;;11.42;100.00;101419.28;5159723;27;20076;-67
2022/01/02 04:26:31;;;;;;;16.70;5.28;;;;;;;11.34;100.00;101408.81;5162520;27;20038;-68
2022/01/02 04:29:05;;;;;;;14.48;5.00;;;;;;;11.35;100.00;101391.84;5158533;27;21680;-68
2022/01/02 04:31:40;;;;;;;10.13;4.70;;;;;;;11.33;100.00;101398.16;5159535;27;20153;-68
2022/01/02 04:34:12;;;;;;;10.02;4.90;;;;;;;11.28;100.00;101384.91;5155241;27;20076;-68
2022/01/02 04:36:40;;;;;;;10.18;5.22;;;;;;;11.28;100.00;101387.59;5159712;27;20054;-68
2022/01/02 04:39:08;;;;;;;11.38;4.88;;;;;;;11.29;100.00;101383.09;5158597;27;20137;-68
2022/01/02 04:41:36;;;;;;;13.43;4.75;;;;;;;11.24;100.00;101380.59;5137536;27;20063;-68
2022/01/02 04:44:08;;;;;;;15.20;5.18;;;;;;;11.26;100.00;101375.19;5162147;27;20096;-68
2022/01/02 04:46:36;;;;;;;13.95;5.13;;;;;;;11.27;100.00;101360.91;5157731;27;20481;-68
2022/01/02 04:49:04;;;;;;;13.63;4.75;;;;;;;11.26;100.00;101364.50;5161760;27;20333;-68
2022/01/02 04:51:32;;;;;;;12.15;5.40;;;;;;;11.16;100.00;101356.72;5157242;27;20622;-69
2022/01/02 04:54:00;;;;;;;13.77;4.97;;;;;;;11.10;100.00;101348.91;5156774;27;20417;-69
2022/01/02 04:56:28;;;;;;;11.45;4.78;;;;;;;11.11;100.00;101339.06;5158797;27;20074;-69
2022/01/02 04:58:57;;;;;;;13.98;4.82;;;;;;;11.11;100.00;101331.94;5158071;27;20253;-72
2022/01/02 05:01:26;;;;;;;11.93;5.22;;;;;;;11.12;100.00;101324.81;5157882;27;20066;-72
2022/01/02 05:03:54;;;;;;;11.70;5.07;;;;;;;11.09;100.00;101315.06;5160485;27;20053;-72
2022/01/02 05:06:22;;;;;;;11.43;5.72;;;;;;;11.09;100.00;101319.56;5158736;27;20050;-72
2022/01/02 05:08:49;;;;;;;10.52;4.93;;;;;;;11.08;100.00;101325.78;5162183;27;20505;-72
2022/01/02 05:11:18;;;;;;;10.40;4.43;;;;;;;11.13;100.00;101314.06;5158678;27;20073;-73
2022/01/02 05:13:45;;;;;;;10.93;4.55;;;;;;;11.19;100.00;101310.38;5158880;27;20078;-74
2022/01/02 05:16:13;;;;;;;13.02;5.22;;;;;;;11.16;100.00;101300.63;5155957;27;20049;-72
2022/01/02 05:18:43;;;;;;;18.77;5.32;;;;;;;11.21;100.00;101297.84;5157317;27;20221;-72
2022/01/02 05:21:11;;;;;;;11.50;4.57;;;;;;;11.24;100.00;101288.84;5160486;27;20647;-72
2022/01/02 05:23:38;;;;;;;10.07;4.05;;;;;;;11.20;100.00;101285.41;5154155;27;20057;-72
2022/01/02 05:26:06;;;;;;;11.45;5.22;;;;;;;11.26;100.00;101269.22;5158160;27;20330;-72
2022/01/02 05:28:34;;;;;;;13.45;4.80;;;;;;;11.22;100.00;101262.22;5158101;27;20068;-72
2022/01/02 05:31:03;;;;;;;11.60;4.28;;;;;;;11.21;100.00;101258.66;5159645;27;20142;-72
2022/01/02 05:33:31;;;;;;;10.95;4.78;;;;;;;11.24;100.00;101260.38;5157643;27;20062;-71
2022/01/02 05:36:01;;;;;;;10.25;4.13;;;;;;;11.27;100.00;101251.38;5158369;27;20058;-72
2022/01/02 05:38:29;;;;;;;9.85;4.90;;;;;;;11.23;100.00;101250.59;5155646;27;20149;-72
2022/01/02 05:40:57;;;;;;;13.45;6.03;;;;;;;11.19;100.00;101248.94;5156760;27;20062;-68
2022/01/02 05:43:25;;;;;;;10.75;4.70;;;;;;;11.24;100.00;101238.09;5156637;27;20149;-68
2022/01/02 05:45:53;;;;;;;13.50;5.22;;;;;;;11.24;100.00;101228.31;5158063;27;20049;-68
2022/01/02 05:48:21;;;;;;;11.98;4.70;;;;;;;11.23;100.00;101229.22;5155371;27;20594;-68
2022/01/02 05:50:49;;;;;;;12.00;4.65;;;;;;;11.24;100.00;101216.72;5140843;27;20134;-68
2022/01/02 05:53:18;;;;;;;12.43;6.53;;;;;;;11.25;100.00;101206.00;5155493;27;20064;-68
2022/01/02 05:55:47;;;;;;;12.77;5.32;;;;;;;11.32;100.00;101215.63;5158754;27;20121;-68
2022/01/02 05:58:15;;;;;;;10.73;4.22;;;;;;;11.31;100.00;101203.16;5160709;27;20505;-68
2022/01/02 06:00:43;;;;;;;9.55;4.85;;;;;;;11.30;100.00;101196.06;5156127;27;20568;-68
2022/01/02 06:03:11;;;;;;;10.98;4.90;;;;;;;11.28;100.00;101199.72;5138466;27;20050;-68
2022/01/02 06:05:40;;;;;;;12.77;4.88;;;;;;;11.25;100.00;101189.13;5156338;27;20050;-68
2022/01/02 06:11:03;;;;;;;9.90;3.95;;;;;;;11.15;100.00;101183.16;5156315;27;20042;-68
2022/01/02 06:13:30;;;;;;;11.70;5.22;;;;;;;11.13;100.00;101180.53;5160258;27;20074;-68
2022/01/02 06:15:58;;;;;;;12.55;5.32;;;;;;;11.11;100.00;101174.34;5135385;27;20082;-68
2022/01/02 06:18:27;;;;;;;11.05;5.32;;;;;;;11.24;100.00;101164.22;5156096;27;20418;-68
2022/01/02 06:20:57;;;;;;;13.80;6.00;;;;;;;11.17;100.00;101150.16;5156582;27;20700;-68
2022/01/02 06:23:27;;;;;;;11.40;4.32;;;;;;;11.17;100.00;101144.81;5158540;27;20056;-69
2022/01/02 06:25:57;;;;;;;11.18;5.20;;;;;;;11.25;100.00;101128.53;5153272;27;20054;-67
2022/01/02 06:28:29;;;;;;;10.23;4.93;;;;;;;11.23;100.00;101125.03;5156101;27;20046;-67
2022/01/02 06:30:58;;;;;;;12.80;5.32;;;;;;;11.18;100.00;101116.31;5155589;27;20530;-67
2022/01/02 06:33:30;;;;;;;9.85;5.00;;;;;;;11.17;100.00;101115.44;5157057;27;20513;-67
2022/01/02 06:36:01;;;;;;;10.57;4.57;;;;;;;11.19;100.00;101124.28;5158651;27;20124;-67
2022/01/02 06:38:32;;;;;;;14.45;4.72;;;;;;;11.28;100.00;101117.78;5153864;27;20110;-67
2022/01/02 06:41:00;;;;;;;10.57;4.65;;;;;;;11.36;100.00;101114.88;5156615;27;20394;-67
2022/01/02 06:43:31;;;;;;;8.68;3.85;;;;;;;11.34;100.00;101117.59;5154536;27;20090;-68
2022/01/02 06:45:59;;;;;;;11.77;4.68;;;;;;;11.36;100.00;101106.88;5155539;27;20132;-68
2022/01/02 06:48:27;;;;;;;7.32;4.22;;;;;;;11.39;100.00;101101.41;5156207;27;20060;-68
2022/01/02 06:50:55;;;;;;;7.97;4.32;;;;;;;11.34;100.00;101093.56;5121426;27;20058;-67
2022/01/02 06:53:23;;;;;;;9.95;4.60;;;;;;;11.30;100.00;101096.34;5153886;27;20072;-68
2022/01/02 06:55:50;;;;;;;8.95;4.22;;;;;;;11.25;100.00;101099.16;5138347;27;20046;-68
2022/01/02 06:58:18;;;;;;;9.73;5.13;;;;;;;11.33;100.00;101098.94;5156216;27;20558;-67
2022/01/02 07:00:48;;;;;;;9.43;4.68;;;;;;;11.37;100.00;101098.81;5139519;27;20266;-69
2022/01/02 07:03:16;;;;;;;9.77;4.85;;;;;;;11.38;100.00;101092.50;5159609;27;20046;-69
2022/01/02 07:05:44;;;;;;;13.40;4.80;;;;;;;11.38;100.00;101097.84;5136914;27;20092;-69
2022/01/02 07:08:17;;;;;;;12.00;4.95;;;;;;;11.43;100.00;101102.22;5156385;27;20769;-68
2022/01/02 07:10:47;;;;;;;9.57;4.38;;;;;;;11.42;100.00;101106.66;5156364;27;20069;-68
2022/01/02 07:13:14;;;;;;;10.45;4.18;;;;;;;11.44;100.00;101117.28;5159474;27;20092;-68
2022/01/02 07:15:43;;;;;;;11.35;5.88;;;;;;;11.49;100.00;101107.34;5133993;27;20131;-69
2022/01/02 07:18:13;;;;;;;9.82;4.57;;;;;;;11.52;100.00;101110.78;5155367;27;20072;-68
2022/01/02 07:21:09;;;;;;;12.30;5.05;;;;;;;11.57;100.00;101116.84;5154527;27;20093;-68
2022/01/02 07:24:03;;;;;;;13.40;4.95;;;;;;;11.57;100.00;101107.97;5138304;27;20133;-69
2022/01/02 07:26:36;;;;;;;13.40;5.22;;;;;;;11.66;100.00;101121.03;5137945;27;20055;-69
2022/01/02 07:29:06;;;;;;;11.10;5.13;;;;;;;11.60;100.00;101131.94;5159520;27;20042;-68
2022/01/02 07:31:35;;;;;;;11.65;5.10;;;;;;;11.58;100.00;101128.44;5155487;27;20316;-68
2022/01/02 07:34:35;;;;;;;11.57;5.00;;;;;;;11.57;100.00;101126.69;5137532;27;20125;-69
2022/01/02 07:40:17;;;;;;;12.60;4.93;;;;;;;11.54;100.00;101116.97;5159825;27;20050;-69
2022/01/02 07:56:40;;;;;;;10.15;5.07;;;;;;;11.33;100.00;101102.47;5151284;27;20099;-69
2022/01/02 07:59:25;;;;;;;12.38;5.90;;;;;;;11.24;100.00;101105.44;5157255;27;20425;-69
2022/01/02 08:02:41;;;;;;;13.50;6.00;;;;;;;11.29;100.00;101121.31;5140034;27;20074;-69
2022/01/02 08:08:45;;;;;;;12.57;5.53;;;;;;;11.28;100.00;101117.78;5152381;27;20476;-69
2022/01/02 08:11:29;;;;;;;12.07;5.53;;;;;;;11.18;100.00;101103.81;5155693;27;20314;-69
2022/01/02 08:14:18;;;;;;;13.68;6.03;;;;;;;11.16;100.00;101119.00;5148442;27;20045;-69
2022/01/02 08:17:27;;;;;;;12.60;6.13;;;;;;;11.12;100.00;101106.69;5158945;27;20046;-69
2022/01/02 08:23:58;;;;;;;16.88;6.65;;;;;;;11.05;100.00;101102.47;5151050;27;20066;-69
2022/01/02 08:29:33;;;;;;;12.05;5.85;;;;;;;11.12;100.00;101105.81;5153630;27;20054;-69
2022/01/02 08:32:11;;;;;;;11.05;6.15;;;;;;;11.10;100.00;101115.66;5155008;27;20050;-69
2022/01/02 08:38:13;;;;;;;14.95;6.78;;;;;;;11.01;100.00;101106.97;5155718;27;20089;-69
2022/01/02 08:40:58;;;;;;;14.30;6.68;;;;;;;10.96;100.00;101097.38;5151920;27;20369;-76
2022/01/02 08:43:25;;;;;;;12.95;7.20;;;;;;;10.94;100.00;101096.56;5156120;27;20129;-76
2022/01/02 08:45:53;;;;;;;10.98;6.45;;;;;;;10.96;100.00;101108.91;5153911;27;20401;-76
2022/01/02 08:48:22;;;;;;;12.13;5.97;;;;;;;10.96;100.00;101100.91;5156631;27;20074;-76
2022/01/02 08:50:50;;;;;;;16.25;6.65;;;;;;;10.91;100.00;101100.16;5155896;27;20126;-76
2022/01/02 08:53:18;;;;;;;13.85;6.03;;;;;;;10.94;100.00;101102.75;5152282;27;20054;-76
2022/01/02 08:55:46;;;;;;;12.35;6.03;;;;;;;10.93;100.00;101110.81;5151878;27;20088;-76
2022/01/02 08:58:15;;;;;;;17.42;7.53;;;;;;;10.89;100.00;101099.34;5157457;27;20712;-77
2022/01/02 09:00:43;;;;;;;13.30;5.88;;;;;;;10.88;100.00;101096.72;5154250;27;20141;-76
2022/01/02 09:03:10;;;;;;;14.60;7.30;;;;;;;10.90;100.00;101103.78;5159314;27;20478;-76
2022/01/02 09:05:39;;;;;;;18.15;6.82;;;;;;;10.92;100.00;101093.06;5160743;27;20046;-77
2022/01/02 09:08:06;;;;;;;15.02;5.93;;;;;;;10.92;100.00;101101.94;5157590;27;20589;-76
2022/01/02 09:10:35;;;;;;;16.88;7.30;;;;;;;10.89;100.00;101102.00;5159953;27;20549;-76
2022/01/02 09:13:03;;;;;;;14.93;7.10;;;;;;;10.90;100.00;101103.78;5157073;27;20114;-77
2022/01/02 09:15:50;;;;;;;12.77;6.97;;;;;;;10.91;100.00;101110.84;5162124;27;20054;-69
2022/01/02 09:18:42;;;;;;;14.52;6.93;;;;;;;10.91;100.00;101112.66;5158068;27;20089;-71
2022/01/02 09:21:15;;;;;;;13.60;7.30;;;;;;;10.87;100.00;101122.53;5158597;27;20098;-78
2022/01/02 09:23:43;;;;;;;10.48;6.65;;;;;;;10.90;100.00;101117.13;5157054;27;20054;-78
2022/01/02 09:26:35;;;;;;;14.48;7.43;;;;;;;10.91;100.00;101118.84;5160912;27;20061;-78
2022/01/02 09:29:04;;;;;;;12.75;6.68;;;;;;;10.89;100.00;101114.50;5155547;27;20057;-78
2022/01/02 09:31:33;;;;;;;12.00;6.20;;;;;;;10.82;100.00;101109.31;5158807;27;20513;-78
2022/01/02 09:34:07;;;;;;;15.98;7.20;;;;;;;10.84;100.00;101117.28;5155230;27;20049;-78
2022/01/02 09:36:37;;;;;;;14.48;7.25;;;;;;;10.86;100.00;101115.44;5157479;27;21345;-79
2022/01/02 09:39:05;;;;;;;13.88;6.35;;;;;;;10.90;100.00;101124.28;5158707;27;20084;-79
2022/01/02 09:41:33;;;;;;;17.75;7.88;;;;;;;10.86;100.00;101126.13;5158234;27;20110;-80
2022/01/02 09:44:01;;;;;;;13.57;6.68;;;;;;;10.91;100.00;101124.19;5158403;27;20137;-80
2022/01/02 09:46:29;;;;;;;13.80;7.22;;;;;;;11.00;100.00;101113.25;5158435;27;20061;-80
2022/01/02 09:49:04;;;;;;;21.60;7.07;;;;;;;11.02;100.00;101115.88;5157554;27;20291;-80
2022/01/02 09:51:56;;;;;;;12.10;7.03;;;;;;;11.11;100.00;101134.31;5158260;27;20117;-79
2022/01/02 09:54:25;;;;;;;16.52;8.32;;;;;;;11.12;100.00;101124.50;5155548;27;20087;-80
2022/01/02 09:56:53;;;;;;;13.23;6.55;;;;;;;11.10;100.00;101123.66;5159776;27;20470;-80
2022/01/02 09:59:21;;;;;;;13.18;5.93;;;;;;;11.13;100.00;101121.78;5162707;27;20049;-80
2022/01/02 10:01:49;;;;;;;11.23;6.40;;;;;;;11.12;100.00;101117.38;5160240;27;20053;-81
2022/01/02 10:04:33;;;;;;;16.30;7.15;;;;;;;11.12;100.00;101124.50;5159558;27;20074;-81
2022/01/02 10:07:00;;;;;;;14.85;6.63;;;;;;;11.10;100.00;101119.22;5160233;27;20061;-81
2022/01/02 10:09:34;;;;;;;15.63;6.80;;;;;;;11.10;100.00;101116.53;5163178;27;20474;-81
2022/01/02 10:12:27;;;;;;;15.38;6.60;;;;;;;11.14;100.00;101120.00;5160951;27;20474;-82
2022/01/02 10:15:17;;;;;;;14.13;6.22;;;;;;;11.14;100.00;101122.66;5161266;27;20107;-82
2022/01/02 10:33:54;;;;;;;17.75;6.20;;;;;;;11.17;100.00;101134.13;5036673;28;20113;-73
2022/01/02 10:37:10;;;;;;;15.00;5.85;;;;;;;11.19;100.00;101145.63;5041305;28;20101;-86
2022/01/02 10:39:40;;;;;;;13.40;5.57;;;;;;;11.27;100.00;101133.84;5043125;28;20136;-84
2022/01/02 10:42:18;;;;;;;15.57;5.70;;;;;;;11.28;100.00;101132.94;5043487;28;20352;-85
2022/01/02 10:44:48;;;;;;;14.35;5.53;;;;;;;11.35;100.00;101131.81;5043310;28;20118;-85
2022/01/02 10:47:18;;;;;;;18.65;6.15;;;;;;;11.36;100.00;101142.47;5043835;28;20061;-86
2022/01/02 10:49:58;;;;;;;17.98;5.57;;;;;;;11.39;100.00;101138.81;5042791;28;20148;-85
2022/01/02 10:52:40;;;;;;;15.23;5.38;;;;;;;11.39;100.00;101117.44;5058136;27;20048;-87
2022/01/02 10:55:20;;;;;;;21.48;6.22;;;;;;;11.44;100.00;101136.91;5098809;27;20059;-85
2022/01/02 10:57:54;;;;;;;21.80;5.82;;;;;;;11.54;100.00;101134.78;5101062;27;20055;-85
2022/01/02 11:00:25;;;;;;;17.67;4.90;;;;;;;11.59;100.00;101143.53;5100352;27;20047;-86
2022/01/02 11:59:55;;;;;;;18.75;4.78;;;;;;;11.62;100.00;101175.53;5010645;28;20085;-79
2022/01/02 12:02:35;;;;;;;21.25;4.95;;;;;;;11.57;100.00;101170.31;5009168;28;20104;-79
2022/01/02 12:05:13;;;;;;;22.67;4.88;;;;;;;11.61;100.00;101171.09;5010903;28;20054;-78
2022/01/02 12:07:53;;;;;;;26.10;5.95;;;;;;;11.53;100.00;101165.13;5007215;28;20128;-79
2022/01/02 12:10:24;;;;;;;19.70;5.05;;;;;;;11.51;100.00;101169.63;5011381;28;20061;-79
2022/01/02 12:13:26;;;;;;;23.88;5.38;;;;;;;11.46;100.00;101172.44;5013183;28;20053;-76
2022/01/02 12:16:24;;;;;;;;;;;;;;;;;;;;;
2022/01/02 12:19:09;;;;;;;;;;;;;;;;;;;;;
2022/01/02 12:22:11;;;;;;;18.38;4.85;;;;;;;11.58;100.00;101179.22;5049292;28;20049;-76
2022/01/02 12:24:41;;;;;;;19.98;4.35;;;;;;;11.68;100.00;101175.34;5045749;28;20040;-78
2022/01/02 12:27:14;;;;;;;20.08;4.95;;;;;;;11.67;100.00;101181.59;5033326;28;20041;-77
2022/01/02 12:30:08;;;;;;;14.63;5.47;;;;;;;11.64;100.00;101171.00;5048830;28;20060;-77
2022/01/02 12:33:00;;;;;;;23.27;4.60;;;;;;;11.61;100.00;101178.22;5048199;28;20480;-77
2022/01/02 12:35:38;;;;;;;19.48;4.43;;;;;;;11.52;100.00;101169.56;5047331;28;20051;-78
2022/01/02 12:38:09;;;;;;;22.83;5.55;;;;;;;11.45;100.00;101168.03;5053282;28;20076;-78
2022/01/02 12:41:01;;;;;;;19.13;5.13;;;;;;;11.46;100.00;101164.44;5098113;27;20623;-77
2022/01/02 12:43:30;;;;;;;22.30;4.75;;;;;;;11.52;100.00;101158.88;5117545;27;21120;-78
2022/01/02 12:46:00;;;;;;;19.95;5.20;;;;;;;11.51;100.00;101154.47;5106297;27;20047;-78
2022/01/02 12:48:32;;;;;;;16.40;4.43;;;;;;;11.54;100.00;101157.06;5118335;27;20865;-78
2022/01/02 12:51:11;;;;;;;24.63;5.70;;;;;;;11.59;100.00;101163.13;5115781;27;20126;-77
2022/01/02 12:53:40;;;;;;;21.73;6.10;;;;;;;11.56;100.00;101152.53;5112727;27;20056;-76
2022/01/02 12:56:08;;;;;;;25.98;5.10;;;;;;;11.61;100.00;101155.03;5114148;27;20135;-76
2022/01/02 12:58:37;;;;;;;19.38;4.53;;;;;;;11.55;100.00;101158.78;5116727;27;20151;-77
2022/01/02 13:01:07;;;;;;;22.92;5.90;;;;;;;11.56;100.00;101165.00;5108820;27;20047;-77
2022/01/02 13:03:59;;;;;;;22.23;5.03;;;;;;;11.55;100.00;101169.47;5112396;27;20276;-76
2022/01/02 13:06:28;;;;;;;27.27;5.72;;;;;;;11.59;100.00;101178.28;5110905;27;20368;-77
2022/01/02 13:08:59;;;;;;;15.18;4.32;;;;;;;11.48;100.00;101175.94;5112549;27;20891;-78
2022/01/02 13:11:37;;;;;;;20.90;4.40;;;;;;;11.42;100.00;101177.94;5109273;27;20301;-76
2022/01/02 13:14:06;;;;;;;21.00;4.82;;;;;;;11.33;100.00;101176.41;5111153;27;20174;-76
2022/01/02 13:16:59;;;;;;;18.02;4.80;;;;;;;11.34;100.00;101188.81;5113581;27;20115;-77
2022/01/02 13:19:27;;;;;;;23.38;4.13;;;;;;;11.38;100.00;101190.50;5109836;27;20215;-77
2022/01/02 13:21:56;;;;;;;10.27;4.05;;;;;;;11.29;100.00;101193.44;5113333;27;20052;-76
2022/01/02 13:24:27;;;;;;;23.70;5.10;;;;;;;11.20;100.00;101190.13;5108541;27;20074;-76
2022/01/02 13:26:57;;;;;;;24.25;4.40;;;;;;;11.14;100.00;101184.09;5112639;27;20076;-76
2022/01/02 13:29:26;;;;;;;20.55;4.38;;;;;;;11.12;100.00;101193.94;5111073;27;20043;-77
2022/01/02 13:31:57;;;;;;;22.38;3.92;;;;;;;11.08;100.00;101195.81;5112728;27;20134;-75
2022/01/02 13:34:27;;;;;;;26.77;5.18;;;;;;;11.12;100.00;101197.50;5111252;27;20082;-76
2022/01/02 13:36:57;;;;;;;17.95;3.15;;;;;;;11.09;100.00;101196.69;5110762;27;20035;-76
2022/01/02 13:39:42;;;;;;;20.83;4.32;;;;;;;11.06;100.00;101200.31;5110371;27;20066;-76
2022/01/02 13:42:11;;;;;;;14.25;3.90;;;;;;;10.92;100.00;101200.72;5114382;27;20039;-75
2022/01/02 13:44:42;;;;;;;14.60;3.55;;;;;;;10.93;100.00;101201.56;5113863;27;20494;-76
2022/01/02 13:47:10;;;;;;;21.70;3.65;;;;;;;10.79;100.00;101202.81;5107971;27;20044;-75
2022/01/02 13:49:56;;;;;;;13.90;2.88;;;;;;;10.72;100.00;101203.06;5103698;27;20051;-76
2022/01/02 13:52:24;;;;;;;16.42;4.43;;;;;;;10.70;100.00;101200.41;5110339;27;20562;-76
2022/01/02 13:55:12;;;;;;;15.10;3.15;;;;;;;10.60;100.00;101201.59;5109570;27;20092;-76
2022/01/02 13:57:42;;;;;;;20.70;3.90;;;;;;;10.55;100.00;101208.84;5110607;27;20051;-76
2022/01/02 14:00:21;;;;;;;17.25;3.50;;;;;;;10.52;100.00;101201.81;5114343;27;20047;-76